This is the latest recevied weather packets stored in our database for station/object KB9GXK. If no packets are shown the sender has not sent any weather packets the latest 1 day(s).
| Time | Temp. | Humidity | Pressure | Rain* | Wind** | Luminosity | Snow |
|---|---|---|---|---|---|---|---|
| 1778033730 | 9.44° C | 50% | 1010.8 hPa | 0 mm | - | 0 W/m² | - |
| 1778033125 | 9.44° C | 51% | 1010 hPa | 0 mm | - | 0 W/m² | - |
| 1778032822 | 9.44° C | 53% | 1010 hPa | 0 mm | - | 0 W/m² | - |
| 1778032519 | 9.44° C | 52% | 1010.3 hPa | 0 mm | - | 0 W/m² | - |
| 1778032216 | 10° C | 50% | 1009.9 hPa | 0 mm | - | 0 W/m² | - |
| 1778030700 | 10° C | 49% | 1009.6 hPa | 0 mm | - | 0 W/m² | - |
| 1778030397 | 10° C | 48% | 1009.6 hPa | 0 mm | - | 0 W/m² | - |
| 1778029791 | 10.56° C | 45% | 1009.2 hPa | 0 mm | - | 0 W/m² | - |
| 1778029490 | 10.56° C | 44% | 1009.2 hPa | 0 mm | - | 1 W/m² | - |
| 1778028277 | 11.11° C | 43% | 1009.3 hPa | 0 mm | - | 8 W/m² | - |
| 1778027366 | 12.22° C | 40% | 1009.1 hPa | 0 mm | - | 15 W/m² | - |
| 1778027062 | 12.22° C | 39% | 1008.9 hPa | 0 mm | - | 16 W/m² | - |
| 1778026455 | 12.78° C | 37% | 1009.1 hPa | 0 mm | - | 31 W/m² | - |
| 1778026152 | 12.78° C | 38% | 1009.2 hPa | 0 mm | - | 30 W/m² | - |
| 1778024033 | 13.33° C | 35% | 1009.2 hPa | 0 mm | - | 49 W/m² | - |
| 1778023428 | 13.33° C | 37% | 1008.9 hPa | 0 mm | - | 53 W/m² | - |
| 1778023124 | 13.33° C | 35% | 1009 hPa | 0 mm | - | 54 W/m² | - |
| 1778022217 | 13.89° C | 36% | 1009.1 hPa | 0 mm | - | 67 W/m² | - |
| 1778021004 | 14.44° C | 35% | 1009.3 hPa | 0 mm | - | 129 W/m² | - |
| 1778020398 | 14.44° C | 34% | 1009.2 hPa | 0 mm | - | 127 W/m² | - |
| 1778019487 | 14.44° C | 34% | 1009.2 hPa | 0 mm | - | 157 W/m² | - |
* Rain latest hour (hover to see other rain measurements)
** Current wind speed in m/s (hover to see current wind gust speed)